Airport ID:KVUF
Update Time (UTC):20/04/2021 00:48
Wind Speed (Knots):9
Wind Direction (Magnetic):200
Temperature (°C):22
Dew Point (°C):-3
Humidity (%):19
Altimeter (inHg):29.9
Density Altitude (Feet):3100
Visibility:10+
Clouds (Hundreds of feet):CLR
Present Weather:
METAR:METAR KVUF 200045Z AUTO 21010KT 10SM CLR 22/M02 A2990 RMK A01

The data displayed is for advisory purposes only and is not to be used for flight planning or operations.